Time;durP1;ratioP1;P1;durP2;ratioP2;P2;SDS_P1;SDS_P2;PMS_P1;PMS_P2;Temp;Humidity;BMP_temperature;BMP_pressure;BME280_temperature;BME280_humidity;BME280_pressure;Samples;Min_cycle;Max_cycle;Signal;HPM_P1;HPM_P2
2022/06/14 03:01:33;;;;;;;3.35;2.08;;;25.50;35.90;;;;;;5535134;23;46262;-63
2022/06/14 03:04:22;;;;;;;3.83;1.85;;;25.50;35.90;;;;;;4851194;28;46262;-64
2022/06/14 03:06:59;;;;;;;4.20;2.05;;;25.50;35.90;;;;;;4866462;29;45381;-64
2022/06/14 03:09:31;;;;;;;3.33;2.03;;;25.60;36.00;;;;;;4885883;28;45343;-63
2022/06/14 03:12:20;;;;;;;4.47;2.30;;;25.50;36.00;;;;;;4871124;28;44916;-63
2022/06/14 03:15:29;;;;;;;4.22;2.50;;;25.50;36.00;;;;;;4898828;28;46143;-65
2022/06/14 03:18:30;;;;;;;3.05;2.25;;;25.50;36.00;;;;;;4880663;28;45266;-62
2022/06/14 03:21:11;;;;;;;2.35;2.00;;;25.40;36.00;;;;;;4890028;28;44863;-63
2022/06/14 03:24:04;;;;;;;3.47;1.95;;;25.40;36.00;;;;;;4902184;28;45026;-63
2022/06/14 03:26:44;;;;;;;2.25;1.75;;;25.40;36.00;;;;;;4877894;28;45930;-62
2022/06/14 03:29:10;;;;;;;3.00;2.08;;;25.40;36.10;;;;;;4869452;29;45007;-64
2022/06/14 03:31:58;;;;;;;4.07;2.17;;;25.40;36.10;;;;;;4879686;29;46436;-63
2022/06/14 03:34:36;;;;;;;2.38;2.10;;;25.40;36.10;;;;;;4883433;29;45248;-63
2022/06/14 03:37:02;;;;;;;3.88;2.50;;;25.40;36.10;;;;;;4865795;28;45146;-64
2022/06/14 03:39:33;;;;;;;2.35;1.63;;;25.40;36.10;;;;;;4868506;28;45422;-65
2022/06/14 03:41:59;;;;;;;3.15;2.30;;;25.40;36.10;;;;;;4854536;28;45815;-66
2022/06/14 03:44:26;;;;;;;3.72;2.05;;;25.30;36.10;;;;;;4858046;28;46481;-64
2022/06/14 03:47:10;;;;;;;3.88;2.17;;;25.30;36.00;;;;;;4871661;28;46804;-63
2022/06/14 03:49:59;;;;;;;2.40;1.98;;;25.30;36.00;;;;;;4872094;28;45564;-64
2022/06/14 03:52:56;;;;;;;4.07;1.95;;;25.20;35.80;;;;;;4873615;28;45076;-65
2022/06/14 03:55:34;;;;;;;4.95;2.47;;;25.20;35.70;;;;;;4890135;28;45188;-63
2022/06/14 03:58:11;;;;;;;3.53;1.98;;;25.20;35.80;;;;;;4873860;28;47138;-65
2022/06/14 04:00:53;;;;;;;4.00;2.60;;;25.10;35.80;;;;;;4849899;28;45530;-63
2022/06/14 04:03:47;;;;;;;4.97;2.60;;;24.90;36.00;;;;;;4873215;28;45105;-67
2022/06/14 04:06:18;;;;;;;4.32;2.38;;;24.80;36.30;;;;;;4840018;28;45487;-66
2022/06/14 04:09:20;;;;;;;3.60;2.30;;;24.80;36.20;;;;;;4857740;28;45699;-64
2022/06/14 04:12:01;;;;;;;6.05;2.60;;;24.80;36.20;;;;;;4884661;28;44799;-64
2022/06/14 04:14:42;;;;;;;2.78;2.10;;;24.80;36.30;;;;;;4859449;28;45449;-64
2022/06/14 04:17:30;;;;;;;3.70;2.30;;;24.80;36.30;;;;;;4881097;28;45328;-65
2022/06/14 04:20:10;;;;;;;3.85;2.30;;;24.90;36.10;;;;;;4843304;28;45979;-65
2022/06/14 04:22:40;;;;;;;4.03;2.15;;;24.90;36.30;;;;;;4876689;28;45821;-64
2022/06/14 04:25:31;;;;;;;2.75;1.92;;;24.90;36.20;;;;;;4878219;28;45819;-64
2022/06/14 04:28:29;;;;;;;3.78;2.30;;;24.80;36.20;;;;;;4882626;28;45764;-66
2022/06/14 04:31:10;;;;;;;5.55;2.80;;;24.80;36.50;;;;;;4892984;28;45556;-64
2022/06/14 04:33:55;;;;;;;4.22;2.45;;;24.80;36.50;;;;;;4898122;28;45464;-64
2022/06/14 04:36:57;;;;;;;4.00;2.75;;;24.80;36.60;;;;;;4897969;28;45247;-66
2022/06/14 04:39:34;;;;;;;3.22;2.50;;;24.70;36.60;;;;;;4868489;28;45396;-64
2022/06/14 04:42:18;;;;;;;3.85;2.35;;;24.80;36.60;;;;;;4862431;28;46632;-64
2022/06/14 04:44:51;;;;;;;4.82;2.53;;;24.80;36.60;;;;;;4876114;28;46272;-65
2022/06/14 04:47:26;;;;;;;3.28;2.15;;;24.70;36.50;;;;;;4862836;28;45073;-64
2022/06/14 04:50:00;;;;;;;4.47;2.40;;;24.60;36.80;;;;;;4880962;28;45388;-66
2022/06/14 04:52:46;;;;;;;4.65;2.60;;;24.50;36.90;;;;;;4861097;28;46201;-64
2022/06/14 04:55:17;;;;;;;3.08;2.53;;;24.40;37.20;;;;;;4881478;28;45550;-65
2022/06/14 04:57:50;;;;;;;3.65;2.50;;;24.40;37.20;;;;;;4879569;28;45565;-65
2022/06/14 05:00:24;;;;;;;;;;;24.40;37.40;;;;;;4875322;28;44974;-65
2022/06/14 05:02:55;;;;;;;5.13;1.90;;;24.30;37.60;;;;;;4876140;28;46650;-65
2022/06/14 05:05:33;;;;;;;3.15;2.45;;;24.30;37.60;;;;;;4859290;28;45537;-66
2022/06/14 05:08:02;;;;;;;3.00;2.40;;;24.30;37.60;;;;;;4862124;28;45627;-65
2022/06/14 05:10:41;;;;;;;5.50;2.38;;;24.30;37.60;;;;;;4879622;28;45665;-64
2022/06/14 05:13:18;;;;;;;5.63;2.60;;;24.40;37.50;;;;;;4896434;28;46007;-65
2022/06/14 05:15:57;;;;;;;4.22;2.35;;;24.40;37.50;;;;;;4866314;28;45088;-64
2022/06/14 05:18:29;;;;;;;3.03;1.95;;;24.50;37.50;;;;;;4863979;28;44844;-65
2022/06/14 05:21:03;;;;;;;3.38;2.10;;;24.50;37.40;;;;;;4863159;28;46024;-65
2022/06/14 05:23:43;;;;;;;3.63;2.45;;;24.50;37.50;;;;;;4863862;28;46230;-65
2022/06/14 05:26:25;;;;;;;4.82;2.67;;;24.60;37.70;;;;;;4862064;28;45307;-65
2022/06/14 05:29:06;;;;;;;6.63;2.90;;;24.60;38.20;;;;;;4881231;28;45335;-65
2022/06/14 05:31:44;;;;;;;6.47;2.53;;;24.70;37.60;;;;;;4897414;28;45304;-65
2022/06/14 05:34:19;;;;;;;5.38;2.30;;;24.80;37.70;;;;;;4883635;28;45650;-65
2022/06/14 05:36:49;;;;;;;5.97;2.60;;;24.80;37.50;;;;;;4877352;28;45230;-66
2022/06/14 05:39:18;;;;;;;4.53;2.60;;;24.70;37.60;;;;;;4868788;29;45178;-64
2022/06/14 05:41:48;;;;;;;4.75;2.45;;;24.70;37.60;;;;;;4868365;28;45533;-64
2022/06/14 05:44:23;;;;;;;2.70;2.03;;;24.70;37.70;;;;;;4867544;28;45257;-53
2022/06/14 05:46:53;;;;;;;3.28;2.00;;;24.80;37.70;;;;;;4868431;28;45197;-55
2022/06/14 05:49:22;;;;;;;3.35;2.03;;;24.80;37.50;;;;;;4889344;28;45219;-56
2022/06/14 05:52:14;;;;;;;3.92;2.65;;;24.80;37.60;;;;;;4879133;29;45320;-57
2022/06/14 05:54:45;;;;;;;3.15;2.17;;;24.80;37.70;;;;;;4885839;28;46226;-57
2022/06/14 05:57:21;;;;;;;5.85;2.25;;;24.90;37.60;;;;;;4880411;29;45517;-58
2022/06/14 05:59:52;;;;;;;4.75;2.22;;;24.90;37.60;;;;;;4886275;28;45531;-55
2022/06/14 06:02:25;;;;;;;4.30;2.45;;;24.90;37.50;;;;;;4872566;29;45579;-56
2022/06/14 06:04:56;;;;;;;;;;;24.90;37.50;;;;;;4882651;29;45198;-55
2022/06/14 06:07:25;;;;;;;5.28;1.95;;;24.90;37.30;;;;;;4896115;28;44982;-56
2022/06/14 06:09:55;;;;;;;2.63;1.65;;;25.00;37.20;;;;;;4868661;29;45243;-57
2022/06/14 06:12:31;;;;;;;2.72;2.03;;;25.00;37.20;;;;;;4866078;28;45318;-57
2022/06/14 06:15:02;;;;;;;3.58;2.00;;;25.00;37.20;;;;;;4874546;28;45287;-57
2022/06/14 06:17:33;;;;;;;8.38;2.40;;;25.10;37.10;;;;;;4874096;28;45247;-55
2022/06/14 06:20:15;;;;;;;3.33;1.92;;;25.10;37.00;;;;;;4886690;28;45388;-55
2022/06/14 06:23:14;;;;;;;6.38;1.90;;;25.10;37.10;;;;;;4891455;28;46962;-56
2022/06/14 06:25:48;;;;;;;3.05;1.52;;;25.20;36.90;;;;;;4880922;28;45876;-58
2022/06/14 06:28:18;;;;;;;3.83;1.90;;;25.20;37.00;;;;;;4883576;28;45378;-57
2022/06/14 06:30:51;;;;;;;5.32;2.08;;;25.20;37.10;;;;;;4905693;28;45294;-57
2022/06/14 06:33:17;;;;;;;4.15;2.10;;;25.30;37.00;;;;;;4888697;29;45226;-58
2022/06/14 06:36:21;;;;;;;5.22;2.08;;;25.30;37.00;;;;;;4889062;29;45923;-57
2022/06/14 06:39:18;;;;;;;2.75;1.67;;;25.30;36.80;;;;;;4907274;28;45425;-54
2022/06/14 17:20:45;;;;;;;0.77;0.50;;;28.30;28.50;;;;;;4881769;28;45476;-65
2022/06/14 17:23:18;;;;;;;0.90;0.63;;;28.30;28.70;;;;;;4894505;28;45301;-64
2022/06/14 17:31:32;;;;;;;2.75;0.88;;;28.30;28.70;;;;;;4864146;29;46191;-64
2022/06/14 17:34:00;;;;;;;1.42;0.80;;;28.40;28.70;;;;;;4876649;28;45128;-64
2022/06/14 17:36:32;;;;;;;1.67;0.75;;;28.30;28.70;;;;;;4876353;29;45510;-65
2022/06/14 17:39:32;;;;;;;0.73;0.67;;;28.30;28.60;;;;;;4855990;28;45852;-64
2022/06/14 17:42:01;;;;;;;0.77;0.70;;;28.30;29.20;;;;;;4872564;29;45218;-64
2022/06/14 17:44:36;;;;;;;3.33;0.80;;;28.40;28.90;;;;;;4882677;28;45589;-64
2022/06/14 17:47:05;;;;;;;1.05;0.50;;;28.40;28.70;;;;;;4875305;28;45195;-64
2022/06/14 17:49:37;;;;;;;0.70;0.60;;;28.30;28.70;;;;;;4864358;28;45335;-64
2022/06/14 17:52:14;;;;;;;1.17;0.77;;;28.40;28.70;;;;;;4850496;29;47027;-65
2022/06/14 17:54:48;;;;;;;0.75;0.65;;;28.40;28.90;;;;;;4892397;28;46071;-65
2022/06/14 17:57:35;;;;;;;1.80;0.65;;;28.30;28.90;;;;;;4882377;28;45519;-65
2022/06/14 18:00:33;;;;;;;1.90;0.95;;;28.30;28.80;;;;;;4880789;28;45909;-65
2022/06/14 18:03:00;;;;;;;0.60;0.60;;;28.30;29.00;;;;;;4861858;29;45468;-65
2022/06/14 18:05:41;;;;;;;1.02;0.70;;;28.30;29.10;;;;;;4877273;28;45510;-65
2022/06/14 18:08:29;;;;;;;0.95;0.60;;;28.30;29.00;;;;;;4899622;28;45891;-65
2022/06/14 18:11:00;;;;;;;0.70;0.70;;;28.30;29.00;;;;;;4864941;28;45953;-64
2022/06/14 18:13:41;;;;;;;1.05;0.82;;;28.30;29.10;;;;;;4896693;28;45834;-64
2022/06/14 18:16:10;;;;;;;1.02;0.70;;;28.30;29.10;;;;;;4875492;29;46186;-65
2022/06/14 18:18:48;;;;;;;1.75;0.65;;;28.30;29.20;;;;;;4886490;28;45070;-64
2022/06/14 18:21:36;;;;;;;1.63;0.88;;;28.30;29.20;;;;;;4878279;29;45488;-65
2022/06/14 18:24:10;;;;;;;0.85;0.60;;;28.30;29.00;;;;;;4865851;28;47459;-65
2022/06/14 18:27:00;;;;;;;1.30;0.80;;;28.30;29.20;;;;;;4864306;29;45313;-64
2022/06/14 18:29:30;;;;;;;0.98;0.60;;;28.30;29.20;;;;;;4901685;28;45650;-65
2022/06/14 18:31:59;;;;;;;0.60;0.60;;;28.30;29.30;;;;;;4866063;28;45309;-64
2022/06/14 18:34:41;;;;;;;2.70;0.90;;;28.30;29.30;;;;;;4898073;28;45869;-64
2022/06/14 18:37:19;;;;;;;0.82;0.60;;;28.30;29.30;;;;;;4881720;29;45619;-64
2022/06/14 18:39:53;;;;;;;0.45;0.43;;;28.30;29.10;;;;;;4886481;28;44993;-65
2022/06/14 18:42:28;;;;;;;2.05;0.55;;;28.30;29.40;;;;;;4888713;28;45198;-64
2022/06/14 18:47:56;;;;;;;0.98;0.70;;;28.20;29.20;;;;;;4899542;28;45300;-65
2022/06/14 18:50:34;;;;;;;1.08;0.73;;;28.10;29.30;;;;;;4884496;28;45229;-64
2022/06/14 18:53:03;;;;;;;0.50;0.50;;;28.20;29.50;;;;;;4901740;28;45569;-65
2022/06/14 18:55:38;;;;;;;1.50;0.60;;;28.10;29.50;;;;;;4888331;28;45585;-65
2022/06/14 18:58:31;;;;;;;1.90;0.90;;;28.10;29.40;;;;;;4903195;28;45598;-65
2022/06/14 19:01:23;;;;;;;0.80;0.70;;;28.10;29.40;;;;;;4876932;29;45309;-64
2022/06/14 19:03:49;;;;;;;0.57;0.57;;;28.10;29.40;;;;;;4895436;28;45654;-65
2022/06/14 19:06:19;;;;;;;0.60;0.50;;;28.10;29.50;;;;;;4882732;29;44938;-64
2022/06/14 19:09:08;;;;;;;1.80;0.60;;;28.00;29.50;;;;;;4852543;28;45260;-64
2022/06/14 19:11:56;;;;;;;0.95;0.60;;;28.00;29.40;;;;;;4888157;28;45341;-65
2022/06/14 19:14:47;;;;;;;1.65;0.68;;;28.00;29.50;;;;;;4878609;28;45764;-64
2022/06/14 19:17:41;;;;;;;2.67;0.80;;;28.00;29.60;;;;;;4874813;28;46897;-65
2022/06/14 19:20:41;;;;;;;3.25;0.50;;;28.00;29.70;;;;;;4887916;28;46038;-65
2022/06/14 19:23:19;;;;;;;1.58;0.60;;;27.90;29.70;;;;;;4900213;28;45006;-65
2022/06/14 19:26:03;;;;;;;2.63;0.68;;;27.90;29.70;;;;;;4868027;28;45226;-65
2022/06/14 19:28:54;;;;;;;1.50;0.60;;;27.90;29.80;;;;;;4904980;28;46732;-64
2022/06/14 19:31:25;;;;;;;0.60;0.60;;;27.90;29.70;;;;;;4899439;28;45572;-64
2022/06/14 19:33:59;;;;;;;1.17;0.60;;;27.90;29.80;;;;;;4860155;28;45218;-65
2022/06/14 19:36:30;;;;;;;1.02;0.70;;;27.90;29.80;;;;;;4855649;29;44739;-65
2022/06/14 19:38:56;;;;;;;2.10;0.70;;;27.90;29.80;;;;;;4890170;28;45579;-64
2022/06/14 19:41:31;;;;;;;2.40;0.90;;;27.90;29.90;;;;;;4895990;28;45619;-64
2022/06/14 19:44:37;;;;;;;3.42;0.98;;;27.90;30.00;;;;;;4886738;28;44724;-64
2022/06/14 19:47:14;;;;;;;1.92;0.70;;;27.90;30.00;;;;;;4884360;28;45418;-65
2022/06/14 19:52:28;;;;;;;2.03;0.80;;;27.80;30.00;;;;;;4886366;29;45214;-64
2022/06/14 19:55:28;;;;;;;5.15;0.80;;;27.80;30.40;;;;;;4840499;29;45237;-65
2022/06/14 19:57:41;;;;;;;1.77;0.95;;;27.80;30.10;;;;;;4858131;29;45251;-64
2022/06/14 20:00:12;;;;;;;2.60;0.88;;;27.80;30.20;;;;;;4886500;28;45467;-65
2022/06/14 20:02:39;;;;;;;3.85;0.95;;;27.80;30.20;;;;;;4863552;28;45428;-65
2022/06/14 20:05:05;;;;;;;1.98;0.77;;;27.70;30.20;;;;;;4903770;28;44841;-64
2022/06/14 20:07:42;;;;;;;1.45;0.80;;;27.70;30.20;;;;;;4867651;29;45266;-64
2022/06/14 20:10:09;;;;;;;1.80;0.90;;;27.70;30.20;;;;;;4888603;28;45443;-64
2022/06/14 20:12:35;;;;;;;2.22;0.70;;;27.70;30.30;;;;;;4885668;28;44746;-64
2022/06/14 20:15:09;;;;;;;2.65;1.10;;;27.60;30.20;;;;;;4871299;29;45422;-64
2022/06/14 20:17:35;;;;;;;;;;;27.70;30.30;;;;;;4887578;28;45594;-63
2022/06/14 20:20:22;;;;;;;2.42;0.80;;;27.60;30.50;;;;;;4885282;28;45167;-63
2022/06/14 20:22:48;;;;;;;2.67;1.10;;;27.60;30.40;;;;;;4905469;28;44966;-63
2022/06/14 20:25:16;;;;;;;1.27;0.90;;;27.60;30.50;;;;;;4868479;28;44686;-63
2022/06/14 20:27:46;;;;;;;1.77;1.00;;;27.60;30.50;;;;;;4856360;28;45009;-64
2022/06/14 20:30:14;;;;;;;2.60;0.75;;;27.60;30.60;;;;;;4890030;29;45346;-63
2022/06/14 20:32:40;;;;;;;2.72;1.20;;;27.60;30.60;;;;;;4889386;28;45162;-63
2022/06/14 20:35:11;;;;;;;1.95;0.80;;;27.60;30.70;;;;;;4901752;28;45409;-63
2022/06/14 20:37:48;;;;;;;2.03;0.77;;;27.60;30.70;;;;;;4885046;29;45623;-64
2022/06/14 20:40:17;;;;;;;0.93;0.65;;;27.60;30.70;;;;;;4861668;28;45644;-65
2022/06/14 20:42:42;;;;;;;2.05;0.82;;;27.50;30.60;;;;;;4884833;29;45240;-64
2022/06/14 20:45:09;;;;;;;1.63;0.90;;;27.50;30.70;;;;;;4887377;28;44713;-64
2022/06/14 20:47:35;;;;;;;3.95;1.27;;;27.50;30.70;;;;;;4870500;29;45199;-65
2022/06/14 20:50:02;;;;;;;2.15;0.90;;;27.50;30.80;;;;;;4888513;29;45193;-64
2022/06/14 20:52:27;;;;;;;1.20;0.95;;;27.50;30.90;;;;;;4870246;29;45191;-64
2022/06/14 20:54:56;;;;;;;2.08;0.98;;;27.50;31.00;;;;;;4885448;29;44798;-64
2022/06/14 20:57:23;;;;;;;1.45;1.00;;;27.40;30.90;;;;;;4869641;29;45311;-64
2022/06/14 20:59:49;;;;;;;2.72;1.23;;;27.40;31.00;;;;;;4870575;28;44979;-65
